sensor_id;sensor_type;location;lat;lon;timestamp;pressure;altitude;pressure_sealevel;temperature;humidity
38939;BME280;24211;49.980;19.776;2023-03-13T00:01:25;98935.31;;;4.86;100.00
38939;BME280;24211;49.980;19.776;2023-03-13T00:03:53;98927.16;;;4.87;100.00
38939;BME280;24211;49.980;19.776;2023-03-13T00:06:24;98926.78;;;4.90;100.00
38939;BME280;24211;49.980;19.776;2023-03-13T00:08:53;98934.72;;;4.90;100.00
38939;BME280;24211;49.980;19.776;2023-03-13T00:11:20;98932.06;;;4.90;100.00
38939;BME280;24211;49.980;19.776;2023-03-13T00:13:47;98944.50;;;4.90;100.00
38939;BME280;24211;49.980;19.776;2023-03-13T00:16:15;98942.88;;;4.89;100.00
38939;BME280;24211;49.980;19.776;2023-03-13T00:18:49;98940.63;;;4.92;100.00
38939;BME280;24211;49.980;19.776;2023-03-13T00:21:19;98940.25;;;4.95;100.00
38939;BME280;24211;49.980;19.776;2023-03-13T00:23:47;98937.59;;;4.95;100.00
38939;BME280;24211;49.980;19.776;2023-03-13T00:26:19;98930.88;;;4.99;100.00
38939;BME280;24211;49.980;19.776;2023-03-13T00:28:47;98921.09;;;5.00;100.00
38939;BME280;24211;49.980;19.776;2023-03-13T00:31:29;98924.38;;;5.02;100.00
38939;BME280;24211;49.980;19.776;2023-03-13T00:34:00;98922.94;;;4.99;100.00
38939;BME280;24211;49.980;19.776;2023-03-13T00:36:32;98921.94;;;5.00;100.00
38939;BME280;24211;49.980;19.776;2023-03-13T00:39:03;98900.31;;;4.97;100.00
38939;BME280;24211;49.980;19.776;2023-03-13T00:41:35;98901.13;;;4.97;100.00
38939;BME280;24211;49.980;19.776;2023-03-13T00:44:04;98901.56;;;5.01;100.00
38939;BME280;24211;49.980;19.776;2023-03-13T00:46:31;98903.78;;;5.04;100.00
38939;BME280;24211;49.980;19.776;2023-03-13T00:48:58;98898.72;;;5.09;100.00
38939;BME280;24211;49.980;19.776;2023-03-13T00:51:27;98891.41;;;5.11;100.00
38939;BME280;24211;49.980;19.776;2023-03-13T00:53:56;98883.25;;;5.12;100.00
38939;BME280;24211;49.980;19.776;2023-03-13T00:56:27;98881.22;;;5.14;100.00
38939;BME280;24211;49.980;19.776;2023-03-13T00:58:54;98878.38;;;5.16;100.00
38939;BME280;24211;49.980;19.776;2023-03-13T01:01:25;98872.28;;;5.15;100.00
38939;BME280;24211;49.980;19.776;2023-03-13T01:04:07;98875.53;;;5.17;100.00
38939;BME280;24211;49.980;19.776;2023-03-13T01:06:37;98876.53;;;5.16;100.00
38939;BME280;24211;49.980;19.776;2023-03-13T01:09:08;98874.72;;;5.23;100.00
38939;BME280;24211;49.980;19.776;2023-03-13T01:11:39;98873.09;;;5.22;100.00
38939;BME280;24211;49.980;19.776;2023-03-13T01:14:17;98871.06;;;5.24;100.00
38939;BME280;24211;49.980;19.776;2023-03-13T01:16:46;98873.69;;;5.24;100.00
38939;BME280;24211;49.980;19.776;2023-03-13T01:19:15;98868.00;;;5.27;100.00
38939;BME280;24211;49.980;19.776;2023-03-13T01:21:45;98864.13;;;5.30;100.00
38939;BME280;24211;49.980;19.776;2023-03-13T01:24:12;98870.25;;;5.31;100.00
38939;BME280;24211;49.980;19.776;2023-03-13T01:26:40;98868.63;;;5.29;100.00
38939;BME280;24211;49.980;19.776;2023-03-13T01:29:07;98868.63;;;5.29;100.00
38939;BME280;24211;49.980;19.776;2023-03-13T01:31:35;98866.56;;;5.32;100.00
38939;BME280;24211;49.980;19.776;2023-03-13T01:34:06;98871.88;;;5.32;100.00
38939;BME280;24211;49.980;19.776;2023-03-13T01:36:35;98867.41;;;5.32;100.00
38939;BME280;24211;49.980;19.776;2023-03-13T01:39:04;98871.47;;;5.35;100.00
38939;BME280;24211;49.980;19.776;2023-03-13T01:41:32;98865.34;;;5.34;100.00
38939;BME280;24211;49.980;19.776;2023-03-13T01:43:59;98869.84;;;5.34;100.00
38939;BME280;24211;49.980;19.776;2023-03-13T01:46:35;98864.53;;;5.34;100.00
38939;BME280;24211;49.980;19.776;2023-03-13T01:49:33;98870.47;;;5.36;100.00
38939;BME280;24211;49.980;19.776;2023-03-13T01:52:25;98880.03;;;5.37;100.00
38939;BME280;24211;49.980;19.776;2023-03-13T01:55:15;98867.63;;;5.37;100.00
38939;BME280;24211;49.980;19.776;2023-03-13T01:57:51;98881.69;;;5.38;100.00
38939;BME280;24211;49.980;19.776;2023-03-13T02:00:26;98880.84;;;5.37;100.00
38939;BME280;24211;49.980;19.776;2023-03-13T02:03:01;98885.34;;;5.37;100.00
38939;BME280;24211;49.980;19.776;2023-03-13T02:05:34;98887.78;;;5.38;100.00
38939;BME280;24211;49.980;19.776;2023-03-13T02:08:12;98889.41;;;5.39;100.00
38939;BME280;24211;49.980;19.776;2023-03-13T02:10:57;98885.94;;;5.39;100.00
38939;BME280;24211;49.980;19.776;2023-03-13T02:13:29;98885.75;;;5.40;100.00
38939;BME280;24211;49.980;19.776;2023-03-13T02:15:57;98888.19;;;5.42;100.00
38939;BME280;24211;49.980;19.776;2023-03-13T02:18:25;98882.91;;;5.42;100.00
38939;BME280;24211;49.980;19.776;2023-03-13T02:21:03;98884.53;;;5.43;100.00
38939;BME280;24211;49.980;19.776;2023-03-13T02:23:47;98890.63;;;5.43;100.00
38939;BME280;24211;49.980;19.776;2023-03-13T02:26:17;98895.16;;;5.43;100.00
38939;BME280;24211;49.980;19.776;2023-03-13T02:28:44;98900.44;;;5.43;100.00
38939;BME280;24211;49.980;19.776;2023-03-13T02:31:13;98906.13;;;5.46;100.00
38939;BME280;24211;49.980;19.776;2023-03-13T02:33:42;98902.66;;;5.46;100.00
38939;BME280;24211;49.980;19.776;2023-03-13T02:36:15;98899.22;;;5.45;100.00
38939;BME280;24211;49.980;19.776;2023-03-13T02:38:53;98907.78;;;5.47;100.00
38939;BME280;24211;49.980;19.776;2023-03-13T02:41:24;98917.34;;;5.48;100.00
38939;BME280;24211;49.980;19.776;2023-03-13T02:43:54;98924.50;;;5.48;100.00
38939;BME280;24211;49.980;19.776;2023-03-13T02:46:21;98923.47;;;5.49;100.00
38939;BME280;24211;49.980;19.776;2023-03-13T02:48:55;98922.47;;;5.50;100.00
38939;BME280;24211;49.980;19.776;2023-03-13T02:51:34;98924.06;;;5.51;100.00
38939;BME280;24211;49.980;19.776;2023-03-13T02:54:09;98931.84;;;5.52;100.00
38939;BME280;24211;49.980;19.776;2023-03-13T02:56:40;98930.03;;;5.53;100.00
38939;BME280;24211;49.980;19.776;2023-03-13T02:59:10;98937.16;;;5.52;100.00
38939;BME280;24211;49.980;19.776;2023-03-13T03:01:40;98936.94;;;5.54;100.00
38939;BME280;24211;49.980;19.776;2023-03-13T03:04:08;98941.22;;;5.55;100.00
38939;BME280;24211;49.980;19.776;2023-03-13T03:06:35;98932.25;;;5.56;100.00
38939;BME280;24211;49.980;19.776;2023-03-13T03:09:04;98940.19;;;5.56;100.00
38939;BME280;24211;49.980;19.776;2023-03-13T03:11:34;98934.72;;;5.57;100.00
38939;BME280;24211;49.980;19.776;2023-03-13T03:14:07;98934.72;;;5.57;100.00
38939;BME280;24211;49.980;19.776;2023-03-13T03:16:39;98937.38;;;5.57;100.00
38939;BME280;24211;49.980;19.776;2023-03-13T03:19:08;98938.16;;;5.58;100.00
38939;BME280;24211;49.980;19.776;2023-03-13T03:21:37;98940.81;;;5.58;100.00
38939;BME280;24211;49.980;19.776;2023-03-13T03:24:04;98932.06;;;5.57;100.00
38939;BME280;24211;49.980;19.776;2023-03-13T03:26:32;98935.31;;;5.59;100.00
38939;BME280;24211;49.980;19.776;2023-03-13T03:29:00;98935.09;;;5.61;100.00
38939;BME280;24211;49.980;19.776;2023-03-13T03:31:27;98935.09;;;5.61;100.00
38939;BME280;24211;49.980;19.776;2023-03-13T03:33:56;98936.75;;;5.62;100.00
38939;BME280;24211;49.980;19.776;2023-03-13T03:36:23;98935.53;;;5.64;100.00
38939;BME280;24211;49.980;19.776;2023-03-13T03:38:51;98928.41;;;5.65;100.00
38939;BME280;24211;49.980;19.776;2023-03-13T03:41:23;98920.44;;;5.65;100.00
38939;BME280;24211;49.980;19.776;2023-03-13T03:43:53;98927.38;;;5.66;100.00
38939;BME280;24211;49.980;19.776;2023-03-13T03:46:24;98923.72;;;5.67;100.00
38939;BME280;24211;49.980;19.776;2023-03-13T03:48:51;98925.31;;;5.68;100.00
38939;BME280;24211;49.980;19.776;2023-03-13T03:51:18;98935.53;;;5.71;100.00
38939;BME280;24211;49.980;19.776;2023-03-13T03:53:46;98926.56;;;5.72;100.00
38939;BME280;24211;49.980;19.776;2023-03-13T03:56:13;98931.88;;;5.72;100.00
38939;BME280;24211;49.980;19.776;2023-03-13T03:58:46;98919.22;;;5.74;100.00
38939;BME280;24211;49.980;19.776;2023-03-13T04:01:34;98929.00;;;5.73;100.00
38939;BME280;24211;49.980;19.776;2023-03-13T04:04:02;98928.81;;;5.75;100.00
38939;BME280;24211;49.980;19.776;2023-03-13T04:06:30;98930.22;;;5.77;100.00
38939;BME280;24211;49.980;19.776;2023-03-13T04:08:57;98929.44;;;5.77;100.00
38939;BME280;24211;49.980;19.776;2023-03-13T04:11:27;98930.03;;;5.79;100.00
38939;BME280;24211;49.980;19.776;2023-03-13T04:13:56;98931.03;;;5.78;100.00
38939;BME280;24211;49.980;19.776;2023-03-13T04:16:24;98927.38;;;5.79;100.00
38939;BME280;24211;49.980;19.776;2023-03-13T04:18:53;98934.31;;;5.80;100.00
38939;BME280;24211;49.980;19.776;2023-03-13T04:21:20;98923.69;;;5.80;100.00
38939;BME280;24211;49.980;19.776;2023-03-13T04:24:08;98932.69;;;5.79;100.00
38939;BME280;24211;49.980;19.776;2023-03-13T04:26:38;98933.09;;;5.82;100.00
38939;BME280;24211;49.980;19.776;2023-03-13T04:29:05;98937.59;;;5.82;100.00
38939;BME280;24211;49.980;19.776;2023-03-13T04:31:46;98933.91;;;5.83;100.00
38939;BME280;24211;49.980;19.776;2023-03-13T04:34:19;98940.47;;;5.87;100.00
38939;BME280;24211;49.980;19.776;2023-03-13T04:37:15;98946.78;;;5.86;100.00
38939;BME280;24211;49.980;19.776;2023-03-13T04:40:01;98931.88;;;5.85;100.00
38939;BME280;24211;49.980;19.776;2023-03-13T04:42:40;98929.06;;;5.86;100.00
38939;BME280;24211;49.980;19.776;2023-03-13T04:45:17;98938.44;;;5.89;100.00
38939;BME280;24211;49.980;19.776;2023-03-13T04:48:15;98934.75;;;5.90;100.00
38939;BME280;24211;49.980;19.776;2023-03-13T04:50:58;98938.44;;;5.89;100.00
38939;BME280;24211;49.980;19.776;2023-03-13T04:53:30;98933.97;;;5.89;100.00
38939;BME280;24211;49.980;19.776;2023-03-13T04:56:33;98935.56;;;5.90;100.00
38939;BME280;24211;49.980;19.776;2023-03-13T04:59:21;98937.00;;;5.93;100.00
38939;BME280;24211;49.980;19.776;2023-03-13T05:02:11;98934.34;;;5.93;100.00
38939;BME280;24211;49.980;19.776;2023-03-13T05:04:57;98933.34;;;5.94;100.00
38939;BME280;24211;49.980;19.776;2023-03-13T05:07:44;98934.97;;;5.95;100.00
38939;BME280;24211;49.980;19.776;2023-03-13T05:10:33;98926.22;;;5.95;100.00
38939;BME280;24211;49.980;19.776;2023-03-13T05:13:21;98922.31;;;5.97;100.00
38939;BME280;24211;49.980;19.776;2023-03-13T05:15:54;98927.59;;;5.97;100.00
38939;BME280;24211;49.980;19.776;2023-03-13T05:18:40;98919.66;;;5.97;100.00
38939;BME280;24211;49.980;19.776;2023-03-13T05:21:26;98918.03;;;5.96;100.00
38939;BME280;24211;49.980;19.776;2023-03-13T05:24:14;98909.03;;;5.97;100.00
38939;BME280;24211;49.980;19.776;2023-03-13T05:27:01;98916.00;;;5.98;100.00
38939;BME280;24211;49.980;19.776;2023-03-13T05:29:49;98911.50;;;5.99;100.00
38939;BME280;24211;49.980;19.776;2023-03-13T05:32:35;98908.44;;;6.02;100.00
38939;BME280;24211;49.980;19.776;2023-03-13T05:35:22;98912.72;;;6.03;100.00
38939;BME280;24211;49.980;19.776;2023-03-13T05:38:08;98903.75;;;6.04;100.00
38939;BME280;24211;49.980;19.776;2023-03-13T05:40:57;98897.22;;;6.06;100.00
38939;BME280;24211;49.980;19.776;2023-03-13T05:43:50;98890.69;;;6.09;100.00
38939;BME280;24211;49.980;19.776;2023-03-13T05:46:30;98894.75;;;6.11;100.00
38939;BME280;24211;49.980;19.776;2023-03-13T05:49:14;98898.03;;;6.13;100.00
38939;BME280;24211;49.980;19.776;2023-03-13T05:52:00;98895.16;;;6.15;100.00
38939;BME280;24211;49.980;19.776;2023-03-13T05:54:45;98896.56;;;6.17;100.00
38939;BME280;24211;49.980;19.776;2023-03-13T05:57:32;98909.44;;;6.20;100.00
38939;BME280;24211;49.980;19.776;2023-03-13T06:00:25;98897.38;;;6.24;100.00
38939;BME280;24211;49.980;19.776;2023-03-13T06:03:06;98904.09;;;6.27;100.00
38939;BME280;24211;49.980;19.776;2023-03-13T06:05:37;98907.19;;;6.30;100.00
38939;BME280;24211;49.980;19.776;2023-03-13T06:08:14;98902.06;;;6.35;100.00
38939;BME280;24211;49.980;19.776;2023-03-13T06:10:41;98901.66;;;6.38;100.00
38939;BME280;24211;49.980;19.776;2023-03-13T06:13:08;98892.25;;;6.42;100.00
38939;BME280;24211;49.980;19.776;2023-03-13T06:15:56;98887.34;;;6.46;100.00
38939;BME280;24211;49.980;19.776;2023-03-13T06:18:42;98898.34;;;6.49;100.00
38939;BME280;24211;49.980;19.776;2023-03-13T06:21:09;98883.66;;;6.53;100.00
38939;BME280;24211;49.980;19.776;2023-03-13T06:23:36;98886.47;;;6.58;100.00
38939;BME280;24211;49.980;19.776;2023-03-13T06:26:04;98897.50;;;6.62;100.00
38939;BME280;24211;49.980;19.776;2023-03-13T06:28:31;98893.19;;;6.68;100.00
38939;BME280;24211;49.980;19.776;2023-03-13T06:31:04;98893.38;;;6.73;100.00
38939;BME280;24211;49.980;19.776;2023-03-13T06:33:32;98899.25;;;6.81;100.00
38939;BME280;24211;49.980;19.776;2023-03-13T06:36:01;98885.16;;;6.87;100.00
38939;BME280;24211;49.980;19.776;2023-03-13T06:38:29;98886.75;;;6.95;100.00
38939;BME280;24211;49.980;19.776;2023-03-13T06:40:56;98890.78;;;7.04;100.00
38939;BME280;24211;49.980;19.776;2023-03-13T06:43:24;98887.88;;;7.12;100.00
38939;BME280;24211;49.980;19.776;2023-03-13T06:45:51;98876.38;;;7.24;100.00
38939;BME280;24211;49.980;19.776;2023-03-13T06:48:18;98879.16;;;7.36;100.00
38939;BME280;24211;49.980;19.776;2023-03-13T06:50:48;98875.78;;;7.47;100.00
38939;BME280;24211;49.980;19.776;2023-03-13T06:53:18;98878.59;;;7.59;100.00
38939;BME280;24211;49.980;19.776;2023-03-13T06:55:46;98876.03;;;7.70;100.00
38939;BME280;24211;49.980;19.776;2023-03-13T06:58:14;98864.50;;;7.76;100.00
38939;BME280;24211;49.980;19.776;2023-03-13T07:00:59;98859.31;;;7.88;100.00
38939;BME280;24211;49.980;19.776;2023-03-13T07:03:32;98862.66;;;8.02;100.00
38939;BME280;24211;49.980;19.776;2023-03-13T07:05:59;98868.72;;;8.09;100.00
38939;BME280;24211;49.980;19.776;2023-03-13T07:08:31;98860.47;;;8.17;100.00
38939;BME280;24211;49.980;19.776;2023-03-13T07:11:02;98860.84;;;8.20;100.00
38939;BME280;24211;49.980;19.776;2023-03-13T07:13:30;98857.91;;;8.28;100.00
38939;BME280;24211;49.980;19.776;2023-03-13T07:16:03;98857.88;;;8.35;100.00
38939;BME280;24211;49.980;19.776;2023-03-13T07:18:32;98865.53;;;8.43;100.00
38939;BME280;24211;49.980;19.776;2023-03-13T07:21:03;98850.78;;;8.47;100.00
38939;BME280;24211;49.980;19.776;2023-03-13T07:23:34;98855.91;;;8.60;100.00
38939;BME280;24211;49.980;19.776;2023-03-13T07:26:05;98858.19;;;8.75;100.00
38939;BME280;24211;49.980;19.776;2023-03-13T07:28:33;98848.75;;;8.79;100.00
38939;BME280;24211;49.980;19.776;2023-03-13T07:31:07;98840.78;;;8.90;100.00
38939;BME280;24211;49.980;19.776;2023-03-13T07:33:35;98835.28;;;9.03;100.00
38939;BME280;24211;49.980;19.776;2023-03-13T07:36:02;98836.00;;;9.10;100.00
38939;BME280;24211;49.980;19.776;2023-03-13T07:38:29;98833.63;;;9.20;100.00
38939;BME280;24211;49.980;19.776;2023-03-13T07:41:03;98823.41;;;9.29;100.00
38939;BME280;24211;49.980;19.776;2023-03-13T07:43:31;98815.34;;;9.36;100.00
38939;BME280;24211;49.980;19.776;2023-03-13T07:46:02;98821.97;;;9.45;100.00
38939;BME280;24211;49.980;19.776;2023-03-13T07:48:41;98823.47;;;9.52;100.00
38939;BME280;24211;49.980;19.776;2023-03-13T07:51:18;98811.53;;;9.66;100.00
38939;BME280;24211;49.980;19.776;2023-03-13T07:53:56;98812.72;;;9.82;100.00
38939;BME280;24211;49.980;19.776;2023-03-13T07:56:23;98809.59;;;9.97;100.00
38939;BME280;24211;49.980;19.776;2023-03-13T07:58:51;98812.69;;;10.05;100.00
38939;BME280;24211;49.980;19.776;2023-03-13T08:01:26;98810.63;;;10.07;100.00
38939;BME280;24211;49.980;19.776;2023-03-13T08:03:57;98803.22;;;10.21;100.00
38939;BME280;24211;49.980;19.776;2023-03-13T08:06:31;98805.84;;;10.44;100.00
38939;BME280;24211;49.980;19.776;2023-03-13T08:09:00;98812.88;;;10.62;100.00
38939;BME280;24211;49.980;19.776;2023-03-13T08:11:28;98815.38;;;10.80;100.00
38939;BME280;24211;49.980;19.776;2023-03-13T08:13:56;98806.31;;;10.81;100.00
38939;BME280;24211;49.980;19.776;2023-03-13T08:16:30;98814.91;;;10.83;100.00
38939;BME280;24211;49.980;19.776;2023-03-13T08:19:02;98810.69;;;10.87;100.00
38939;BME280;24211;49.980;19.776;2023-03-13T08:21:35;98799.06;;;10.93;100.00
38939;BME280;24211;49.980;19.776;2023-03-13T08:24:06;98799.25;;;11.03;100.00
38939;BME280;24211;49.980;19.776;2023-03-13T08:26:37;98786.09;;;11.01;100.00
38939;BME280;24211;49.980;19.776;2023-03-13T08:29:09;98788.06;;;11.06;100.00
38939;BME280;24211;49.980;19.776;2023-03-13T08:34:11;98792.84;;;11.21;100.00
38939;BME280;24211;49.980;19.776;2023-03-13T08:36:39;98799.44;;;11.30;100.00
38939;BME280;24211;49.980;19.776;2023-03-13T08:39:15;98789.97;;;11.39;100.00
38939;BME280;24211;49.980;19.776;2023-03-13T08:41:43;98783.88;;;11.43;100.00
38939;BME280;24211;49.980;19.776;2023-03-13T08:44:14;98774.91;;;11.49;100.00
38939;BME280;24211;49.980;19.776;2023-03-13T08:46:41;98779.34;;;11.60;100.00
38939;BME280;24211;49.980;19.776;2023-03-13T08:49:11;98780.59;;;11.69;100.00
38939;BME280;24211;49.980;19.776;2023-03-13T08:51:39;98762.81;;;11.80;100.00
38939;BME280;24211;49.980;19.776;2023-03-13T08:54:06;98758.69;;;12.11;100.00
38939;BME280;24211;49.980;19.776;2023-03-13T08:56:34;98759.31;;;12.39;100.00
38939;BME280;24211;49.980;19.776;2023-03-13T08:59:03;98751.69;;;12.53;100.00
38939;BME280;24211;49.980;19.776;2023-03-13T09:01:34;98757.19;;;12.63;100.00
38939;BME280;24211;49.980;19.776;2023-03-13T09:04:02;98741.22;;;12.73;100.00
38939;BME280;24211;49.980;19.776;2023-03-13T09:06:36;98740.28;;;12.84;100.00
38939;BME280;24211;49.980;19.776;2023-03-13T09:09:05;98735.84;;;13.00;100.00
38939;BME280;24211;49.980;19.776;2023-03-13T09:11:33;98737.28;;;13.07;100.00
38939;BME280;24211;49.980;19.776;2023-03-13T09:14:00;98740.63;;;13.20;100.00
38939;BME280;24211;49.980;19.776;2023-03-13T09:16:30;98735.34;;;13.30;100.00
38939;BME280;24211;49.980;19.776;2023-03-13T09:18:58;98726.81;;;13.38;100.00
38939;BME280;24211;49.980;19.776;2023-03-13T09:21:33;98729.59;;;13.48;100.00
38939;BME280;24211;49.980;19.776;2023-03-13T09:24:01;98723.75;;;13.56;100.00
38939;BME280;24211;49.980;19.776;2023-03-13T09:26:29;98723.81;;;13.66;100.00
38939;BME280;24211;49.980;19.776;2023-03-13T09:28:56;98725.47;;;13.77;100.00
38939;BME280;24211;49.980;19.776;2023-03-13T09:31:32;98719.22;;;14.13;100.00
38939;BME280;24211;49.980;19.776;2023-03-13T09:34:00;98720.56;;;14.83;100.00
38939;BME280;24211;49.980;19.776;2023-03-13T09:36:28;98725.44;;;15.92;84.56
38939;BME280;24211;49.980;19.776;2023-03-13T09:38:57;98722.25;;;17.03;71.43
38939;BME280;24211;49.980;19.776;2023-03-13T09:41:39;98712.41;;;17.79;64.68
38939;BME280;24211;49.980;19.776;2023-03-13T09:44:19;98709.16;;;18.29;60.89
38939;BME280;24211;49.980;19.776;2023-03-13T09:49:35;98702.91;;;18.10;61.29
38939;BME280;24211;49.980;19.776;2023-03-13T09:52:16;98702.94;;;17.53;63.62
38939;BME280;24211;49.980;19.776;2023-03-13T09:55:13;98693.31;;;16.05;76.15
38939;BME280;24211;49.980;19.776;2023-03-13T09:58:05;98701.50;;;15.30;85.13
38939;BME280;24211;49.980;19.776;2023-03-13T10:00:40;98694.75;;;15.07;94.92
38939;BME280;24211;49.980;19.776;2023-03-13T10:03:15;98681.31;;;15.17;98.60
38939;BME280;24211;49.980;19.776;2023-03-13T10:05:49;98669.47;;;15.23;95.74
38939;BME280;24211;49.980;19.776;2023-03-13T10:08:25;98667.31;;;15.25;94.86
38939;BME280;24211;49.980;19.776;2023-03-13T10:11:31;98667.31;;;15.35;96.08
38939;BME280;24211;49.980;19.776;2023-03-13T10:14:28;98657.63;;;15.49;98.81
38939;BME280;24211;49.980;19.776;2023-03-13T10:17:35;98659.22;;;15.60;95.05
38939;BME280;24211;49.980;19.776;2023-03-13T10:23:18;98661.38;;;15.58;83.16
38939;BME280;24211;49.980;19.776;2023-03-13T10:25:46;98661.88;;;15.70;81.02
38939;BME280;24211;49.980;19.776;2023-03-13T10:28:17;98660.81;;;15.72;79.55
38939;BME280;24211;49.980;19.776;2023-03-13T10:30:50;98652.66;;;15.97;78.21
38939;BME280;24211;49.980;19.776;2023-03-13T10:33:39;98646.69;;;16.00;75.17
38939;BME280;24211;49.980;19.776;2023-03-13T10:36:12;98651.44;;;16.23;70.75
38939;BME280;24211;49.980;19.776;2023-03-13T10:38:50;98633.59;;;16.32;69.51
38939;BME280;24211;49.980;19.776;2023-03-13T10:41:36;98628.13;;;16.52;64.24
38939;BME280;24211;49.980;19.776;2023-03-13T10:44:32;98618.78;;;16.73;63.43
38939;BME280;24211;49.980;19.776;2023-03-13T10:47:01;98618.34;;;17.00;60.98
38939;BME280;24211;49.980;19.776;2023-03-13T10:49:30;98609.59;;;17.08;58.88
38939;BME280;24211;49.980;19.776;2023-03-13T10:52:02;98606.44;;;17.30;57.33
38939;BME280;24211;49.980;19.776;2023-03-13T10:54:33;98611.41;;;17.18;58.17
38939;BME280;24211;49.980;19.776;2023-03-13T10:59:51;98605.50;;;17.44;56.66
38939;BME280;24211;49.980;19.776;2023-03-13T11:02:33;98605.94;;;17.56;56.47
38939;BME280;24211;49.980;19.776;2023-03-13T11:07:52;98593.16;;;17.62;55.13
38939;BME280;24211;49.980;19.776;2023-03-13T11:10:28;98583.47;;;17.61;56.98
38939;BME280;24211;49.980;19.776;2023-03-13T11:12:57;98577.94;;;17.71;58.79
38939;BME280;24211;49.980;19.776;2023-03-13T11:15:41;98580.72;;;17.85;57.75
38939;BME280;24211;49.980;19.776;2023-03-13T11:18:21;98587.56;;;17.77;58.03
38939;BME280;24211;49.980;19.776;2023-03-13T11:20:53;98573.84;;;17.74;57.34
38939;BME280;24211;49.980;19.776;2023-03-13T11:23:27;98574.19;;;17.67;57.48
38939;BME280;24211;49.980;19.776;2023-03-13T11:26:37;98569.38;;;17.64;58.82
38939;BME280;24211;49.980;19.776;2023-03-13T11:29:43;98563.16;;;17.63;59.47
38939;BME280;24211;49.980;19.776;2023-03-13T11:32:26;98561.84;;;17.61;59.88
38939;BME280;24211;49.980;19.776;2023-03-13T11:35:14;98559.59;;;17.68;58.97
38939;BME280;24211;49.980;19.776;2023-03-13T11:37:43;98550.97;;;17.66;57.75
38939;BME280;24211;49.980;19.776;2023-03-13T11:40:31;98546.13;;;17.63;58.04
38939;BME280;24211;49.980;19.776;2023-03-13T11:43:05;98543.94;;;17.65;57.02
38939;BME280;24211;49.980;19.776;2023-03-13T11:46:31;98549.19;;;17.56;56.32
38939;BME280;24211;49.980;19.776;2023-03-13T11:49:37;98533.94;;;17.42;52.83
38939;BME280;24211;49.980;19.776;2023-03-13T11:52:47;98534.69;;;17.24;53.46
38939;BME280;24211;49.980;19.776;2023-03-13T11:55:29;98521.75;;;17.21;55.63
38939;BME280;24211;49.980;19.776;2023-03-13T11:58:04;98534.47;;;17.15;56.73
38939;BME280;24211;49.980;19.776;2023-03-13T12:00:48;98524.03;;;17.09;57.45
38939;BME280;24211;49.980;19.776;2023-03-13T12:03:53;98517.91;;;16.98;54.80
38939;BME280;24211;49.980;19.776;2023-03-13T12:09:43;98503.88;;;16.72;52.27
38939;BME280;24211;49.980;19.776;2023-03-13T12:12:30;98499.59;;;16.66;52.78
38939;BME280;24211;49.980;19.776;2023-03-13T12:15:16;98481.06;;;16.60;53.16
38939;BME280;24211;49.980;19.776;2023-03-13T12:20:41;98473.91;;;16.40;52.80
38939;BME280;24211;49.980;19.776;2023-03-13T12:25:57;98457.91;;;16.20;51.96
38939;BME280;24211;49.980;19.776;2023-03-13T12:32:03;98455.06;;;16.06;51.92
38939;BME280;24211;49.980;19.776;2023-03-13T12:34:54;98448.31;;;16.04;51.85
38939;BME280;24211;49.980;19.776;2023-03-13T12:37:41;98443.41;;;16.11;53.45
38939;BME280;24211;49.980;19.776;2023-03-13T12:40:40;98438.03;;;16.11;53.69
38939;BME280;24211;49.980;19.776;2023-03-13T12:43:20;98432.31;;;16.17;51.81
38939;BME280;24211;49.980;19.776;2023-03-13T12:58:12;98438.09;;;16.34;51.58
38939;BME280;24211;49.980;19.776;2023-03-13T13:00:45;98431.88;;;16.34;50.66
38939;BME280;24211;49.980;19.776;2023-03-13T13:03:29;98429.75;;;16.36;50.60
38939;BME280;24211;49.980;19.776;2023-03-13T13:06:11;98428.69;;;16.32;51.43
38939;BME280;24211;49.980;19.776;2023-03-13T13:08:42;98426.84;;;16.27;50.93
38939;BME280;24211;49.980;19.776;2023-03-13T13:11:51;98427.34;;;16.29;50.10
38939;BME280;24211;49.980;19.776;2023-03-13T13:19:55;98433.75;;;16.05;51.35
38939;BME280;24211;49.980;19.776;2023-03-13T13:25:27;98430.59;;;15.93;51.13
38939;BME280;24211;49.980;19.776;2023-03-13T13:28:10;98438.69;;;15.93;50.87
38939;BME280;24211;49.980;19.776;2023-03-13T13:30:38;98429.06;;;15.87;52.51
38939;BME280;24211;49.980;19.776;2023-03-13T13:35:46;98440.41;;;15.79;54.48
38939;BME280;24211;49.980;19.776;2023-03-13T13:38:36;98446.31;;;15.81;54.64
38939;BME280;24211;49.980;19.776;2023-03-13T13:43:47;98449.06;;;15.70;55.95
38939;BME280;24211;49.980;19.776;2023-03-13T13:46:25;98442.09;;;15.69;57.94
38939;BME280;24211;49.980;19.776;2023-03-13T13:49:10;98442.19;;;15.49;65.28
38939;BME280;24211;49.980;19.776;2023-03-13T13:51:41;98447.09;;;15.32;72.02
38939;BME280;24211;49.980;19.776;2023-03-13T13:56:47;98439.94;;;15.07;99.61
38939;BME280;24211;49.980;19.776;2023-03-13T13:59:28;98438.09;;;14.93;100.00
38939;BME280;24211;49.980;19.776;2023-03-13T14:05:05;98435.97;;;14.75;100.00
38939;BME280;24211;49.980;19.776;2023-03-13T14:13:21;98441.44;;;14.39;100.00
38939;BME280;24211;49.980;19.776;2023-03-13T14:15:52;98443.00;;;14.25;100.00
38939;BME280;24211;49.980;19.776;2023-03-13T14:18:22;98427.97;;;14.09;100.00
38939;BME280;24211;49.980;19.776;2023-03-13T14:21:05;98437.06;;;13.93;100.00
38939;BME280;24211;49.980;19.776;2023-03-13T14:23:45;98434.41;;;13.83;100.00
38939;BME280;24211;49.980;19.776;2023-03-13T14:26:17;98419.88;;;13.74;100.00
38939;BME280;24211;49.980;19.776;2023-03-13T14:29:00;98412.91;;;13.73;100.00
38939;BME280;24211;49.980;19.776;2023-03-13T14:31:35;98426.03;;;13.64;100.00
38939;BME280;24211;49.980;19.776;2023-03-13T14:34:06;98417.16;;;13.59;100.00